createdAt,value
2023-01-07T00:01:25.853Z,5.13
2023-01-07T00:04:15.849Z,6.28
2023-01-07T00:07:03.483Z,6.25
2023-01-07T00:09:51.185Z,9.38
2023-01-07T00:12:38.811Z,5.90
2023-01-07T00:15:26.725Z,6.70
2023-01-07T00:18:14.414Z,7.50
2023-01-07T00:21:05.067Z,6.90
2023-01-07T00:23:57.642Z,8.75
2023-01-07T00:26:45.462Z,7.50
2023-01-07T00:29:33.105Z,9.40
2023-01-07T00:32:21.182Z,8.63
2023-01-07T00:35:23.380Z,17.60
2023-01-07T00:38:12.173Z,20.50
2023-01-07T00:40:59.882Z,14.98
2023-01-07T00:43:50.294Z,10.77
2023-01-07T00:46:38.227Z,10.57
2023-01-07T00:49:26.808Z,6.10
2023-01-07T00:52:14.587Z,4.20
2023-01-07T00:55:02.334Z,6.28
2023-01-07T00:57:50.044Z,5.50
2023-01-07T01:00:38.257Z,4.45
2023-01-07T01:03:27.929Z,2.85
2023-01-07T01:06:17.243Z,2.85
2023-01-07T01:09:04.824Z,3.45
2023-01-07T01:11:52.571Z,3.20
2023-01-07T01:14:40.161Z,2.35
2023-01-07T01:17:28.296Z,3.05
2023-01-07T01:20:16.309Z,2.58
2023-01-07T01:23:04.512Z,2.75
2023-01-07T01:25:52.269Z,2.80
2023-01-07T01:28:40.160Z,2.92
2023-01-07T01:31:29.131Z,6.70
2023-01-07T01:34:17.116Z,4.97
2023-01-07T01:37:05.109Z,5.72
2023-01-07T01:39:52.882Z,4.40
2023-01-07T01:42:40.654Z,7.50
2023-01-07T01:45:30.673Z,7.70
2023-01-07T01:48:21.043Z,7.20
2023-01-07T01:51:11.333Z,9.18
2023-01-07T01:53:59.257Z,8.00
2023-01-07T01:56:52.616Z,8.40
2023-01-07T01:59:44.403Z,8.18
2023-01-07T02:02:40.044Z,11.95
2023-01-07T02:05:33.297Z,14.85
2023-01-07T02:08:23.506Z,17.52
2023-01-07T02:11:32.904Z,15.25
2023-01-07T02:14:40.898Z,13.43
2023-01-07T02:17:41.670Z,16.80
2023-01-07T02:20:48.162Z,15.10
2023-01-07T02:23:46.339Z,15.20
2023-01-07T02:26:58.455Z,18.05
2023-01-07T02:30:00.310Z,15.07
2023-01-07T02:33:06.591Z,15.02
2023-01-07T02:36:18.817Z,12.43
2023-01-07T02:39:46.868Z,11.30
2023-01-07T02:43:03.060Z,10.25
2023-01-07T02:46:03.712Z,10.30
2023-01-07T02:48:51.896Z,10.73
2023-01-07T02:51:41.550Z,9.10
2023-01-07T02:54:30.186Z,8.93
2023-01-07T02:57:24.765Z,9.48
2023-01-07T03:00:33.225Z,9.60
2023-01-07T03:04:03.500Z,11.02
2023-01-07T03:07:00.321Z,10.70
2023-01-07T03:10:06.409Z,13.00
2023-01-07T03:13:07.526Z,11.88
2023-01-07T03:16:03.580Z,13.15
2023-01-07T03:19:06.943Z,15.00
2023-01-07T03:21:56.759Z,13.05
2023-01-07T03:24:46.855Z,13.73
2023-01-07T03:27:36.979Z,13.38
2023-01-07T03:30:26.145Z,10.90
2023-01-07T03:33:20.413Z,11.02
2023-01-07T03:36:11.867Z,10.98
2023-01-07T03:39:01.935Z,12.30
2023-01-07T03:42:08.951Z,11.65
2023-01-07T03:44:58.467Z,9.48
2023-01-07T03:47:50.292Z,9.60
2023-01-07T03:50:38.974Z,9.63
2023-01-07T03:53:27.452Z,9.30
2023-01-07T03:56:15.238Z,10.93
2023-01-07T03:59:06.049Z,12.70
2023-01-07T04:01:54.232Z,14.50
2023-01-07T04:04:50.782Z,14.63
2023-01-07T04:07:39.625Z,10.68
2023-01-07T04:10:27.343Z,12.65
2023-01-07T04:13:15.231Z,20.05
2023-01-07T04:16:14.848Z,32.38
2023-01-07T04:19:14.124Z,22.00
2023-01-07T04:22:01.829Z,21.70
2023-01-07T04:24:51.655Z,19.13
2023-01-07T04:27:40.235Z,24.33
2023-01-07T04:30:28.192Z,20.42
2023-01-07T04:33:15.961Z,18.70
2023-01-07T04:36:05.123Z,15.88
2023-01-07T04:38:52.932Z,15.15
2023-01-07T04:41:40.717Z,13.93
2023-01-07T04:44:29.244Z,14.95
2023-01-07T04:47:18.060Z,15.00
2023-01-07T04:50:06.606Z,16.55
2023-01-07T04:52:56.280Z,17.05
2023-01-07T04:55:46.226Z,18.15
2023-01-07T04:58:35.204Z,14.40
2023-01-07T05:01:23.367Z,14.32
2023-01-07T05:04:11.299Z,14.18
2023-01-07T05:06:59.013Z,13.73
2023-01-07T05:09:47.549Z,13.55
2023-01-07T05:12:37.008Z,13.82
2023-01-07T05:15:26.151Z,47.30
2023-01-07T05:18:15.639Z,23.73
2023-01-07T05:21:04.006Z,13.07
2023-01-07T05:23:52.155Z,12.50
2023-01-07T05:26:40.503Z,13.25
2023-01-07T05:29:29.172Z,16.15
2023-01-07T05:32:28.749Z,16.35
2023-01-07T05:35:26.261Z,15.20
2023-01-07T05:38:13.954Z,14.95
2023-01-07T05:41:01.677Z,16.20
2023-01-07T05:43:49.773Z,18.13
2023-01-07T05:46:39.681Z,18.42
2023-01-07T05:49:27.441Z,17.30
2023-01-07T05:52:15.083Z,14.52
2023-01-07T05:55:02.804Z,14.05
2023-01-07T05:57:50.521Z,16.15
2023-01-07T06:00:39.057Z,18.52
2023-01-07T06:03:26.778Z,21.10
2023-01-07T06:06:14.549Z,15.73
2023-01-07T06:09:02.241Z,14.95
2023-01-07T06:11:50.045Z,14.70
2023-01-07T06:14:37.718Z,13.32
2023-01-07T06:17:25.553Z,16.42
2023-01-07T06:20:15.245Z,21.63
2023-01-07T06:23:05.561Z,21.60
2023-01-07T06:25:53.200Z,22.05
2023-01-07T06:28:40.897Z,20.30
2023-01-07T06:31:28.527Z,23.92
2023-01-07T06:34:18.872Z,30.40
2023-01-07T06:37:07.035Z,28.58
2023-01-07T06:39:58.662Z,20.80
2023-01-07T06:42:46.484Z,18.88
2023-01-07T06:45:34.277Z,19.80
2023-01-07T06:54:43.352Z,13.75
2023-01-07T06:57:45.235Z,10.80
2023-01-07T07:00:37.192Z,10.32
2023-01-07T07:03:25.183Z,12.10
2023-01-07T07:06:12.966Z,11.02
2023-01-07T07:09:01.303Z,11.68
2023-01-07T07:11:52.266Z,10.07
2023-01-07T07:14:40.271Z,22.33
2023-01-07T07:17:28.124Z,28.67
2023-01-07T07:20:16.116Z,26.88
2023-01-07T07:23:04.365Z,26.15
2023-01-07T07:25:52.189Z,27.92
2023-01-07T07:28:43.033Z,28.50
2023-01-07T07:31:31.016Z,24.13
2023-01-07T07:34:18.792Z,23.85
2023-01-07T07:37:06.599Z,24.52
2023-01-07T07:39:54.486Z,20.45
2023-01-07T07:43:10.637Z,23.20
2023-01-07T07:45:52.555Z,19.65
2023-01-07T07:48:40.582Z,21.95
2023-01-07T07:51:28.409Z,23.05
2023-01-07T07:54:16.158Z,20.20
2023-01-07T07:57:04.170Z,23.33
2023-01-07T07:59:52.083Z,23.50
2023-01-07T08:02:39.751Z,14.70
2023-01-07T08:05:28.468Z,11.27
2023-01-07T08:08:16.039Z,7.95
2023-01-07T08:11:04.737Z,6.68
2023-01-07T08:13:52.341Z,8.00
2023-01-07T08:16:43.111Z,3.25
2023-01-07T08:19:33.420Z,2.40
2023-01-07T08:22:21.113Z,2.35
2023-01-07T08:25:09.117Z,3.10
2023-01-07T08:27:57.850Z,2.15
2023-01-07T08:30:45.716Z,2.97
2023-01-07T08:33:38.817Z,2.70
2023-01-07T08:36:27.580Z,4.22
2023-01-07T08:39:15.703Z,5.43
2023-01-07T08:42:03.597Z,5.18
2023-01-07T08:44:51.372Z,5.88
2023-01-07T08:47:42.080Z,5.63
2023-01-07T08:50:37.506Z,5.32
2023-01-07T08:53:35.108Z,5.53
2023-01-07T08:56:54.356Z,4.72
2023-01-07T08:59:48.744Z,5.97
2023-01-07T09:06:49.328Z,5.63
2023-01-07T09:09:43.483Z,4.75
2023-01-07T09:12:36.635Z,4.25
2023-01-07T09:15:26.888Z,4.25
2023-01-07T09:18:14.769Z,2.50
2023-01-07T09:21:02.787Z,1.27
2023-01-07T09:23:50.900Z,1.70
2023-01-07T09:26:38.746Z,1.83
2023-01-07T09:29:28.991Z,1.67
2023-01-07T09:32:19.128Z,1.80
2023-01-07T09:35:09.594Z,1.90
2023-01-07T09:37:57.398Z,1.85
2023-01-07T09:40:46.485Z,1.33
2023-01-07T09:46:55.396Z,3.45
2023-01-07T09:49:48.025Z,1.92
2023-01-07T09:52:54.150Z,1.05
2023-01-07T09:56:11.318Z,1.42
2023-01-07T09:58:52.441Z,1.90
2023-01-07T10:02:17.819Z,2.08
2023-01-07T10:05:17.738Z,2.30
2023-01-07T10:08:36.134Z,1.10
2023-01-07T10:12:00.700Z,2.17
2023-01-07T10:15:05.973Z,3.50
2023-01-07T10:18:10.579Z,2.65
2023-01-07T10:21:37.150Z,2.95
2023-01-07T10:24:32.604Z,2.80
2023-01-07T10:27:30.699Z,3.15
2023-01-07T10:30:30.783Z,2.60
2023-01-07T10:33:29.317Z,3.03
2023-01-07T10:36:58.015Z,3.08
2023-01-07T10:40:07.298Z,1.90
2023-01-07T10:43:19.664Z,2.72
2023-01-07T10:46:41.599Z,2.20
2023-01-07T10:49:57.343Z,2.17
2023-01-07T10:53:56.390Z,1.67
2023-01-07T10:56:51.191Z,4.75
2023-01-07T10:59:39.540Z,3.83
2023-01-07T11:02:27.868Z,1.52
2023-01-07T11:05:18.588Z,1.60
2023-01-07T11:08:16.559Z,1.73
2023-01-07T11:11:07.821Z,1.40
2023-01-07T11:14:03.325Z,0.43
2023-01-07T11:16:57.134Z,0.52
2023-01-07T11:19:54.075Z,0.50
2023-01-07T11:22:44.359Z,0.70
2023-01-07T11:25:32.154Z,0.57
2023-01-07T11:28:27.414Z,0.43
2023-01-07T11:31:22.226Z,0.35
2023-01-07T11:34:43.289Z,0.70
2023-01-07T11:37:58.428Z,0.70
2023-01-07T11:41:00.731Z,1.83
2023-01-07T11:43:53.287Z,1.27
2023-01-07T11:49:32.714Z,1.08
2023-01-07T11:52:26.189Z,1.13
2023-01-07T11:55:20.470Z,1.70
2023-01-07T11:58:28.809Z,1.38
2023-01-07T12:01:24.464Z,0.77
2023-01-07T12:04:34.972Z,0.98
2023-01-07T12:07:25.118Z,1.15
2023-01-07T12:10:35.688Z,0.70
2023-01-07T12:13:29.012Z,1.02
2023-01-07T12:16:27.655Z,0.52
2023-01-07T12:19:38.487Z,0.90
2023-01-07T12:22:48.836Z,1.02
2023-01-07T12:26:16.625Z,0.73
2023-01-07T12:29:16.220Z,0.70
2023-01-07T12:33:00.269Z,0.90
2023-01-07T12:36:21.731Z,1.42
2023-01-07T12:39:52.400Z,1.88
2023-01-07T12:42:59.131Z,1.80
2023-01-07T12:46:12.046Z,1.90
2023-01-07T12:49:16.739Z,2.72
2023-01-07T12:52:27.448Z,1.60
2023-01-07T12:55:35.296Z,1.70
2023-01-07T12:59:09.947Z,1.45
2023-01-07T13:02:42.293Z,1.13
2023-01-07T13:05:38.818Z,0.98
2023-01-07T13:08:43.208Z,0.95
2023-01-07T13:11:54.549Z,1.27
2023-01-07T13:15:12.267Z,0.80
2023-01-07T13:18:14.980Z,0.95
2023-01-07T13:21:17.253Z,2.33
2023-01-07T13:24:55.765Z,2.78
2023-01-07T13:28:03.484Z,1.40
2023-01-07T13:31:02.914Z,0.93
2023-01-07T13:34:21.998Z,0.63
2023-01-07T13:37:20.834Z,20.35
2023-01-07T13:40:45.638Z,1.55
2023-01-07T13:44:11.146Z,1.25
2023-01-07T13:47:03.168Z,2.35
2023-01-07T13:49:59.735Z,2.88
2023-01-07T13:53:00.634Z,5.57
2023-01-07T13:55:49.468Z,3.50
2023-01-07T13:58:55.847Z,6.10
2023-01-07T14:02:28.449Z,1.58
2023-01-07T14:05:20.159Z,1.17
2023-01-07T14:08:08.011Z,1.00
2023-01-07T14:10:56.554Z,1.05
2023-01-07T14:14:13.594Z,1.80
2023-01-07T14:17:07.314Z,2.10
2023-01-07T14:20:15.342Z,1.88
2023-01-07T14:23:33.593Z,1.20
2023-01-07T14:26:39.776Z,0.90
2023-01-07T14:29:48.303Z,0.80
2023-01-07T14:32:42.366Z,0.82
2023-01-07T14:35:56.339Z,0.73
2023-01-07T14:38:45.615Z,1.23
2023-01-07T14:41:56.372Z,0.90
2023-01-07T14:44:52.834Z,1.35
2023-01-07T14:47:47.292Z,2.20
2023-01-07T14:50:44.326Z,1.92
2023-01-07T14:54:09.953Z,2.60
2023-01-07T14:57:52.968Z,3.10
2023-01-07T15:00:54.736Z,2.38
2023-01-07T15:04:15.458Z,1.73
2023-01-07T15:07:05.651Z,4.13
2023-01-07T15:10:21.458Z,5.03
2023-01-07T15:13:40.192Z,10.32
2023-01-07T15:16:30.979Z,7.20
2023-01-07T15:19:25.264Z,8.35
2023-01-07T15:22:38.196Z,16.13
2023-01-07T15:25:39.952Z,16.17
2023-01-07T15:28:43.951Z,13.00
2023-01-07T15:32:02.298Z,25.65
2023-01-07T15:34:53.052Z,26.83
2023-01-07T15:37:50.907Z,21.20
2023-01-07T15:40:43.260Z,32.97
2023-01-07T15:43:32.260Z,37.58
2023-01-07T15:46:43.010Z,35.38
2023-01-07T15:49:45.891Z,62.33
2023-01-07T15:52:33.930Z,51.30
2023-01-07T15:55:28.722Z,43.95
2023-01-07T15:58:41.013Z,34.30
2023-01-07T16:01:29.473Z,35.50
2023-01-07T16:04:32.751Z,37.55
2023-01-07T16:07:31.165Z,34.25
2023-01-07T16:10:28.399Z,37.90
2023-01-07T16:13:19.086Z,44.03
2023-01-07T16:16:07.014Z,47.50
2023-01-07T16:19:02.691Z,77.07
2023-01-07T16:21:55.557Z,63.40
2023-01-07T16:24:52.596Z,49.00
2023-01-07T16:27:42.256Z,43.58
2023-01-07T16:30:30.393Z,47.45
2023-01-07T16:33:25.808Z,45.03
2023-01-07T16:36:20.996Z,53.28
2023-01-07T16:39:22.255Z,55.35
2023-01-07T16:42:23.450Z,54.95
2023-01-07T16:45:29.677Z,53.70
2023-01-07T16:48:24.197Z,53.75
2023-01-07T16:51:54.879Z,62.30
2023-01-07T16:54:46.981Z,67.05
2023-01-07T16:57:40.049Z,75.55
2023-01-07T17:00:28.091Z,65.82
2023-01-07T17:03:19.012Z,65.35
2023-01-07T17:06:08.200Z,67.20
2023-01-07T17:09:00.172Z,83.00
2023-01-07T17:11:50.522Z,77.95
2023-01-07T17:14:41.112Z,74.80
2023-01-07T17:17:34.400Z,61.60
2023-01-07T17:20:22.799Z,65.70
2023-01-07T17:23:25.715Z,59.88
2023-01-07T17:26:23.469Z,57.45
2023-01-07T17:29:16.753Z,49.17
2023-01-07T17:32:05.148Z,54.08
2023-01-07T17:34:52.929Z,127.78
2023-01-07T17:37:40.558Z,52.10
2023-01-07T17:40:28.274Z,39.45
2023-01-07T17:43:34.081Z,43.55
2023-01-07T17:46:27.659Z,48.58
2023-01-07T17:49:20.720Z,36.20
2023-01-07T17:52:10.404Z,39.97
2023-01-07T17:54:57.979Z,47.60
2023-01-07T17:57:48.871Z,44.40
2023-01-07T18:00:36.950Z,42.25
2023-01-07T18:03:25.337Z,45.78
2023-01-07T18:06:24.764Z,48.28
2023-01-07T18:09:13.875Z,48.42
2023-01-07T18:12:20.236Z,51.88
2023-01-07T18:15:20.496Z,54.10
2023-01-07T18:18:08.071Z,50.60
2023-01-07T18:20:56.569Z,53.90
2023-01-07T18:23:46.220Z,65.43
2023-01-07T18:26:33.911Z,63.55
2023-01-07T18:29:21.638Z,59.15
2023-01-07T18:32:09.931Z,63.97
2023-01-07T18:34:57.659Z,69.82
2023-01-07T18:37:48.477Z,71.38
2023-01-07T18:40:37.612Z,72.28
2023-01-07T18:43:25.586Z,54.03
2023-01-07T18:46:14.694Z,51.38
2023-01-07T18:49:03.299Z,50.95
2023-01-07T18:51:51.036Z,50.13
2023-01-07T18:54:41.072Z,45.28
2023-01-07T18:57:28.802Z,45.40
2023-01-07T19:00:16.986Z,47.75
2023-01-07T19:03:04.776Z,42.60
2023-01-07T19:05:52.435Z,43.17
2023-01-07T19:08:40.609Z,39.13
2023-01-07T19:11:28.359Z,37.28
2023-01-07T19:14:16.323Z,35.78
2023-01-07T19:17:08.408Z,46.78
2023-01-07T19:19:56.159Z,40.50
2023-01-07T19:22:43.936Z,43.65
2023-01-07T19:25:31.999Z,48.65
2023-01-07T19:28:19.662Z,49.55
2023-01-07T19:31:08.722Z,66.88
2023-01-07T19:33:56.871Z,49.75
2023-01-07T19:36:47.496Z,46.03
2023-01-07T19:39:35.426Z,45.30
2023-01-07T19:42:23.257Z,48.75
2023-01-07T19:45:11.307Z,50.83
2023-01-07T19:47:58.960Z,50.63
2023-01-07T19:50:54.245Z,48.35
2023-01-07T19:53:42.990Z,48.63
2023-01-07T19:56:31.211Z,50.30
2023-01-07T19:59:19.018Z,47.63
2023-01-07T20:02:26.743Z,43.00
2023-01-07T20:05:26.629Z,44.60
2023-01-07T20:08:20.781Z,31.23
2023-01-07T20:11:08.555Z,38.28
2023-01-07T20:13:56.217Z,34.25
2023-01-07T20:16:46.594Z,40.65
2023-01-07T20:19:34.425Z,44.97
2023-01-07T20:22:22.044Z,35.95
2023-01-07T20:25:10.132Z,37.53
2023-01-07T20:27:57.771Z,39.38
2023-01-07T20:30:46.220Z,35.58
2023-01-07T20:33:34.803Z,38.67
2023-01-07T20:36:25.997Z,38.22
2023-01-07T20:39:13.717Z,34.17
2023-01-07T20:42:01.302Z,35.03
2023-01-07T20:44:51.801Z,45.70
2023-01-07T20:47:39.540Z,55.00
2023-01-07T20:50:27.804Z,59.30
2023-01-07T20:53:15.631Z,53.70
2023-01-07T20:56:04.259Z,61.95
2023-01-07T20:58:52.100Z,85.60
2023-01-07T21:01:40.643Z,63.15
2023-01-07T21:04:31.990Z,52.95
2023-01-07T21:07:28.501Z,56.05
2023-01-07T21:10:18.347Z,52.75
2023-01-07T21:13:07.844Z,42.83
2023-01-07T21:16:03.281Z,45.47
2023-01-07T21:18:51.072Z,46.38
2023-01-07T21:21:38.746Z,45.00
2023-01-07T21:24:26.505Z,41.95
2023-01-07T21:27:14.166Z,44.13
2023-01-07T21:30:04.984Z,46.83
2023-01-07T21:32:53.511Z,42.60
2023-01-07T21:45:46.712Z,32.80
2023-01-07T21:48:39.661Z,35.30
2023-01-07T21:51:28.389Z,32.70
2023-01-07T21:54:16.155Z,28.17
2023-01-07T21:57:04.329Z,31.15
2023-01-07T21:59:52.175Z,30.55
2023-01-07T22:02:39.945Z,28.35
2023-01-07T22:05:27.739Z,23.38
2023-01-07T22:08:15.451Z,31.65
2023-01-07T22:11:03.252Z,34.30
2023-01-07T22:13:56.154Z,28.88
2023-01-07T22:16:49.030Z,34.60
2023-01-07T22:19:36.958Z,27.42
2023-01-07T22:22:24.697Z,23.30
2023-01-07T22:25:12.345Z,23.23
2023-01-07T22:28:02.924Z,21.25
2023-01-07T22:30:55.395Z,22.45
2023-01-07T22:33:43.021Z,17.95
2023-01-07T22:37:05.577Z,17.98
2023-01-07T22:42:59.007Z,18.63
2023-01-07T22:45:55.799Z,18.25
2023-01-07T22:48:43.540Z,12.90
2023-01-07T22:51:38.591Z,12.90
2023-01-07T22:54:28.029Z,12.68
2023-01-07T22:57:16.202Z,17.33
2023-01-07T23:00:08.020Z,22.85
2023-01-07T23:02:55.793Z,21.58
2023-01-07T23:05:43.725Z,17.30
2023-01-07T23:08:31.495Z,17.05
2023-01-07T23:11:37.577Z,15.88
2023-01-07T23:14:26.706Z,14.95
2023-01-07T23:17:14.443Z,12.90
2023-01-07T23:20:02.220Z,11.80
2023-01-07T23:22:50.010Z,11.38
2023-01-07T23:25:38.298Z,13.05
2023-01-07T23:28:26.016Z,14.23
2023-01-07T23:31:13.720Z,16.60
2023-01-07T23:34:02.122Z,16.60
2023-01-07T23:36:49.810Z,15.57
2023-01-07T23:39:37.482Z,17.20
2023-01-07T23:42:25.192Z,16.60
2023-01-07T23:45:12.913Z,17.13
2023-01-07T23:48:00.574Z,15.23
2023-01-07T23:50:48.222Z,14.88
2023-01-07T23:53:36.616Z,14.88
2023-01-07T23:56:24.302Z,16.00
2023-01-07T23:59:13.085Z,13.90
